Latest Coastal Weather Observations for Jervis Bay Airfield

IDN60701

Issued at 4:11 pm EDT Thursday 23 January 2020 (issued every 10 minutes, with the page automatically refreshed every 10 minutes)

About coastal observations | Map of coastal stations | Coastal observations for NSW | Marine services | Other Formats
Station Details ID: 068264 Name: JERVIS BAY AIRFIELD AWS Lat: -35.14 Lon: 150.70 Height: 57.18 m
Data from the previous 72 hours. | See also: Recent months at Jervis Bay Airfield
Date/Time
EDT
Wind Sea
Height
m
Swell Vis
km
Cloud Weather Temp
°C
Press
hPa
Rain since
9am
mm
Dir  Spd
kts
Gust
kts
Height
m
Period
s
Dir
23/04:00pm NW 18 24 - - - - 10 - - 39.1 996.1 0.0
23/03:30pm NW 17 27 - - - - 9 - - 38.7 996.3 0.0
23/03:10pm WNW 17 28 - - - - 9 - - 38.1 996.5 0.0
23/03:00pm WNW 19 28 - - - - 10 - - 38.7 996.3 0.0
23/02:55pm WNW 18 27 - - - - 10 - - 38.8 996.3 0.0
23/02:34pm NNW 23 33 - - - - 10 - - 39.2 996.1 0.0
23/02:30pm NW 23 31 - - - - 10 - - 39.2 996.3 0.0
23/02:16pm N 16 38 - - - - 10 - - 38.7 996.2 0.0
23/02:14pm N 12 33 - - - - 10 - - 37.9 996.4 0.0
23/02:00pm NNE 9 12 - - - - 10 - - 30.9 997.0 0.0
23/01:30pm NNE 13 18 - - - - 10 - - 29.7 996.9 0.0
23/01:00pm NNE 16 26 - - - - 10 - - 29.4 997.3 0.0
23/12:40pm NNE 15 27 - - - - 10 - - 29.8 997.3 0.0
23/12:30pm N 13 21 - - - - 10 - - 28.8 997.7 0.0
23/12:00pm NNE 15 23 - - - - 10 - - 29.3 997.7 0.0
23/11:30am NNE 16 25 - - - - 10 - - 29.6 998.0 0.0
23/11:00am N 12 17 - - - - 10 - - 31.1 998.2 0.0
23/10:30am N 13 19 - - - - 10 - - 29.0 998.6 0.0
23/10:00am NNE 13 18 - - - - 10 - - 29.2 998.8 0.0
23/09:30am NNE 11 17 - - - - 10 - - 28.0 999.3 0.0
23/09:00am NNE 10 15 - - - - 10 - - 26.9 999.7 0.0
23/08:30am NE 12 16 - - - - 10 - - 25.5 999.8 0.0
23/08:00am NNE 12 16 - - - - 10 - - 23.9 1000.0 0.0
23/07:30am NNE 12 17 - - - - 10 - - 23.6 1000.2 0.0
23/07:00am NE 11 14 - - - - 10 - - 22.9 1000.3 0.0
23/06:30am NE 13 17 - - - - 10 - - 22.7 1000.7 0.0
23/06:00am NE 12 15 - - - - 10 - - 22.3 1000.8 0.0
23/05:30am NNE 12 16 - - - - 10 - - 22.1 1000.8 0.0
23/05:00am NNE 13 18 - - - - 10 - - 22.3 1000.9 0.0
23/04:30am NE 11 14 - - - - 10 - - 21.9 1001.1 0.0
23/04:00am NNE 9 10 - - - - 10 - - 22.0 1001.6 0.0
23/03:30am NNE 10 14 - - - - 10 - - 22.3 1002.0 0.0
23/03:00am NNE 10 13 - - - - 10 - - 22.3 1002.4 0.0
23/02:30am NNE 9 14 - - - - 10 - - 22.5 1002.7 0.0
23/02:00am NNE 12 16 - - - - 10 - - 22.9 1003.1 0.0
23/01:30am NNE 11 17 - - - - 10 - - 23.0 1003.6 0.0
23/01:00am NNE 12 15 - - - - 10 - - 23.0 1004.0 0.0
23/12:30am NE 11 13 - - - - 10 - - 23.1 1004.5 0.0
23/12:00am NNE 11 14 - - - - 10 - - 23.2 1004.9 0.0
 
Date/Time
EDT
Wind Sea
Height
m
Swell Vis
km
Cloud Weather Temp
°C
Press
hPa
Rain since
9am
mm
Dir  Spd
kts
Gust
kts
Height
m
Period
s
Dir
22/11:30pm NE 13 17 - - - - 10 - - 23.3 1005.0 0.0
22/11:00pm NE 14 17 - - - - 10 - - 23.3 1005.5 0.0
22/10:30pm NE 14 19 - - - - 10 - - 23.4 1005.6 0.0
22/10:00pm NNE 12 16 - - - - 10 - - 23.6 1005.7 0.0
22/09:30pm NNE 13 17 - - - - 10 - - 23.6 1005.4 0.0
22/09:00pm NE 11 15 - - - - 10 - - 23.6 1005.0 0.0
22/08:30pm NE 11 14 - - - - 10 - - 23.8 1004.7 0.0
22/08:00pm NE 11 14 - - - - 10 - - 24.2 1004.5 0.0
22/07:30pm NE 13 17 - - - - 10 - - 24.5 1004.4 0.0
22/07:00pm NE 13 17 - - - - 10 - - 24.8 1004.2 0.0
22/06:30pm NE 15 20 - - - - 10 - - 25.1 1004.1 0.0
22/06:00pm NNE 16 21 - - - - 10 - - 25.1 1004.2 0.0
22/05:30pm NE 17 22 - - - - 10 - - 25.3 1004.5 0.0
22/05:00pm NE 17 23 - - - - 10 - - 26.3 1004.8 0.0
22/04:30pm NE 17 25 - - - - 10 - - 26.4 1005.2 0.0
22/04:00pm NNE 17 24 - - - - 10 - - 26.6 1005.6 0.0
22/03:30pm NNE 18 27 - - - - 10 - - 26.9 1006.0 0.0
22/03:00pm NNE 18 23 - - - - 10 - - 27.0 1006.3 0.0
22/02:30pm NNE 18 25 - - - - 10 - - 26.9 1006.5 0.0
22/02:00pm NNE 17 23 - - - - 10 - - 27.1 1006.9 0.0
22/01:30pm NNE 18 22 - - - - 10 - - 27.0 1007.5 0.0
22/01:00pm NNE 16 22 - - - - 10 - - 27.1 1007.9 0.0
22/12:30pm NNE 17 22 - - - - 10 - - 26.9 1008.4 0.0
22/12:00pm NNE 16 22 - - - - 10 - - 26.4 1009.0 0.0
22/11:30am NNE 16 21 - - - - 10 - - 25.9 1009.3 0.0
22/11:00am NE 15 18 - - - - 10 - - 25.9 1009.5 0.0
22/10:30am NNE 13 17 - - - - 10 - - 25.3 1009.7 0.0
22/10:00am NE 11 14 - - - - 10 - - 24.4 1009.9 0.0
22/09:30am NNE 8 11 - - - - 10 - - 24.3 1010.0 0.0
22/09:00am N 8 11 - - - - 10 - - 23.3 1010.4 0.0
22/08:30am NNE 7 10 - - - - 10 - - 22.5 1010.4 0.0
22/08:00am N 7 9 - - - - 10 - - 21.5 1010.3 0.0
22/07:30am NE 5 6 - - - - 10 - - 20.3 1010.3 0.0
22/07:00am NE 5 6 - - - - 10 - - 19.5 1009.9 0.0
22/06:30am NE 6 7 - - - - 10 - - 18.5 1009.7 0.0
22/06:00am NE 5 6 - - - - 10 - - 18.5 1009.7 0.0
22/05:30am NNE 6 7 - - - - 10 - - 18.8 1009.6 0.0
22/05:00am NE 6 7 - - - - 10 - - 18.7 1009.5 0.0
22/04:30am NNE 5 6 - - - - 10 - - 18.6 1009.4 0.0
22/04:00am NNE 6 7 - - - - 10 - - 18.8 1009.5 0.0
22/03:30am NE 5 7 - - - - 10 - - 18.8 1009.6 0.0
22/03:00am NE 4 5 - - - - 10 - - 18.9 1009.8 0.0
22/02:30am NE 4 5 - - - - 10 - - 19.0 1009.9 0.0
22/02:00am NNE 4 5 - - - - 10 - - 18.9 1010.2 0.0
22/01:30am NNW 3 4 - - - - 10 - - 19.2 1010.4 0.0
22/01:00am NNW 1 3 - - - - 10 - - 19.8 1010.4 0.0
22/12:30am NNW 3 4 - - - - 10 - - 20.1 1010.7 0.0
22/12:00am W 3 4 - - - - 10 - - 20.0 1010.7 0.0
 
Date/Time
EDT
Wind Sea
Height
m
Swell Vis
km
Cloud Weather Temp
°C
Press
hPa
Rain since
9am
mm
Dir  Spd
kts
Gust
kts
Height
m
Period
s
Dir
21/11:30pm CALM 0 0 - - - - 10 - - 19.9 1010.7 0.0
21/11:00pm SW 3 4 - - - - 10 - - 20.0 1010.6 0.0
21/10:30pm SE 3 4 - - - - 10 - - 20.7 1010.6 0.0
21/10:00pm CALM 0 0 - - - - 10 - - 20.6 1010.5 0.0
21/09:30pm CALM 0 2 - - - - 10 - - 21.0 1010.3 0.0
21/09:00pm SE 2 4 - - - - 10 - - 21.2 1010.0 0.0
21/08:30pm SE 5 7 - - - - 10 - - 21.7 1009.7 0.0
21/08:00pm SSE 6 8 - - - - 10 - - 22.0 1009.3 0.0
21/07:30pm SE 6 9 - - - - 10 - - 22.2 1008.9 0.0
21/07:00pm SE 8 12 - - - - 10 - - 22.7 1008.4 0.0
21/06:30pm ESE 10 13 - - - - 10 - - 22.9 1007.9 0.0
21/06:00pm SE 11 14 - - - - 10 - - 22.8 1007.5 0.0
21/05:30pm ESE 11 16 - - - - 10 - - 23.5 1007.1 0.0
21/05:00pm ESE 12 16 - - - - 10 - - 23.9 1006.9 0.0
21/04:30pm ESE 11 16 - - - - 10 - - 24.2 1006.8 0.0
21/04:00pm E 12 17 - - - - 10 - - 24.0 1006.8 0.0
21/03:30pm ESE 13 17 - - - - 10 - - 24.8 1006.4 0.0
21/03:00pm ESE 13 17 - - - - 10 - - 25.1 1006.2 0.0
21/02:30pm E 12 14 - - - - 10 - - 25.4 1006.5 0.0
21/02:00pm ESE 13 17 - - - - 10 - - 26.0 1006.7 0.0
21/01:30pm ESE 12 15 - - - - 10 - - 25.4 1006.7 0.0
21/01:00pm SE 12 15 - - - - 10 - - 25.7 1007.0 0.0
21/12:30pm SE 13 17 - - - - 10 - - 26.3 1007.0 0.0
21/12:00pm SSE 8 14 - - - - 10 - - 26.0 1007.0 0.0
21/11:30am S 10 13 - - - - 10 - - 25.6 1007.1 0.0
21/11:00am SSW 9 12 - - - - 10 - - 25.7 1006.9 0.0
21/10:30am WSW 6 13 - - - - 10 - - 25.5 1007.0 0.0
21/10:00am WNW 11 15 - - - - 10 - - 24.4 1006.7 0.0
21/09:30am WNW 10 13 - - - - 10 - - 23.7 1006.4 0.0
21/09:00am WNW 8 12 - - - - 10 - - 23.2 1006.0 20.8
21/08:30am NW 6 10 - - - - 10 - - 22.2 1005.5 20.8
21/08:00am WNW 6 8 - - - - 10 - - 21.1 1005.0 20.8
21/07:30am WNW 6 10 - - - - 10 - - 20.2 1004.5 20.8
21/07:00am WNW 11 15 - - - - 10 - - 19.5 1003.9 20.8
21/06:30am WSW 7 11 - - - - 10 - - 18.5 1003.6 20.8
21/06:00am WNW 7 9 - - - - 10 - - 18.4 1003.2 20.8
21/05:30am NW 10 12 - - - - 10 - - 18.1 1003.0 20.8
21/05:00am WNW 7 9 - - - - 10 - - 18.4 1002.9 20.8
21/04:30am WNW 6 7 - - - - 10 - - 17.5 1002.6 20.8
21/04:00am WNW 7 9 - - - - 10 - - 17.5 1002.5 20.8
21/03:30am W 4 5 - - - - 10 - - 17.4 1002.1 20.8
21/03:00am WNW 6 7 - - - - 10 - - 17.9 1002.3 20.8
21/02:30am NW 6 7 - - - - 10 - - 17.2 1002.5 20.8
21/02:00am WNW 4 5 - - - - 10 - - 17.9 1002.8 20.8
21/01:30am W 5 7 - - - - 10 - - 18.2 1002.9 20.8
21/01:00am WNW 5 7 - - - - 10 - - 18.6 1002.9 20.8
21/12:30am NW 3 5 - - - - 10 - - 18.5 1003.0 20.8
21/12:00am ENE 3 4 - - - - 10 - - 18.1 1003.2 20.8
 
Date/Time
EDT
Wind Sea
Height
m
Swell Vis
km
Cloud Weather Temp
°C
Press
hPa
Rain since
9am
mm
Dir  Spd
kts
Gust
kts
Height
m
Period
s
Dir
20/11:30pm NW 4 5 - - - - 10 - - 18.4 1003.4 20.8
20/11:00pm WNW 3 4 - - - - 10 - - 18.5 1003.3 20.8
20/10:30pm CALM 0 0 - - - - 10 - - 19.2 1003.2 20.8
20/10:00pm CALM 0 0 - - - - 10 - - 19.1 1002.9 20.8
20/09:30pm SSW 1 3 - - - - 10 - - 19.5 1002.3 20.8
20/09:00pm NNE 1 5 - - - - 10 - - 19.8 1001.7 20.8
20/08:30pm NNE 5 6 - - - - 10 - - 20.3 1001.3 20.8
20/08:00pm CALM 0 0 - - - - 10 - - 21.6 1000.8 20.8
20/07:30pm ENE 4 6 - - - - 10 - - 22.3 1000.7 20.8
20/07:00pm NE 7 8 - - - - 10 - - 22.3 1000.8 20.8
20/06:30pm WSW 3 5 - - - - 10 - - 24.1 1000.5 20.8
20/06:00pm S 5 8 - - - - 10 - - 23.6 1000.3 20.8
20/05:30pm SW 5 8 - - - - 10 - - 23.0 999.9 20.8
20/05:00pm N 5 10 - - - - 10 - - 21.5 1000.8 20.8
20/04:30pm NNW 5 12 - - - - 10 - - 21.8 1000.9 20.8
20/04:22pm NW 4 5 - - - - 10 - - 20.5 1000.9 20.8

Other formats

Comma delimited format used in spreadsheet applications
http://www.bom.gov.au/fwo/IDN60701/IDN60701.94751.axf

JavaScript Object Notation format (JSON) in row-major order
http://www.bom.gov.au/fwo/IDN60701/IDN60701.94751.json

Data quality

Most of these data are generated automatically and are frequently updated. Quality checks on data are not normally performed. It is possible for incorrect values to appear. Refer to information at About Latest Weather Observations and please check the disclaimer before using these data.